createdAt,value
2017-10-21T00:01:11.990Z,11.13
2017-10-21T00:03:39.488Z,10.33
2017-10-21T00:06:07.009Z,8.40
2017-10-21T00:08:34.469Z,9.17
2017-10-21T00:11:01.971Z,10.23
2017-10-21T00:13:29.431Z,9.50
2017-10-21T00:15:56.934Z,9.27
2017-10-21T00:18:25.912Z,9.40
2017-10-21T00:20:53.404Z,9.90
2017-10-21T00:23:21.661Z,9.40
2017-10-21T00:25:49.143Z,8.00
2017-10-21T00:28:17.420Z,7.20
2017-10-21T00:30:45.670Z,7.47
2017-10-21T00:33:13.159Z,8.27
2017-10-21T00:35:41.429Z,8.10
2017-10-21T00:38:09.719Z,8.53
2017-10-21T00:40:37.943Z,9.43
2017-10-21T00:43:05.407Z,7.47
2017-10-21T00:45:32.922Z,8.00
2017-10-21T00:48:00.411Z,7.70
2017-10-21T00:50:27.942Z,8.13
2017-10-21T00:52:55.395Z,8.60
2017-10-21T00:55:22.934Z,8.43
2017-10-21T00:57:51.165Z,10.10
2017-10-21T01:00:18.686Z,9.70
2017-10-21T01:02:46.178Z,10.33
2017-10-21T01:05:13.668Z,9.03
2017-10-21T01:07:41.173Z,10.50
2017-10-21T01:10:08.639Z,8.60
2017-10-21T01:12:36.130Z,9.87
2017-10-21T01:15:03.635Z,9.33
2017-10-21T01:17:31.899Z,10.27
2017-10-21T01:20:00.128Z,10.23
2017-10-21T01:22:27.635Z,9.43
2017-10-21T01:24:55.878Z,8.90
2017-10-21T01:27:23.344Z,9.83
2017-10-21T01:29:50.848Z,10.00
2017-10-21T01:32:18.323Z,9.03
2017-10-21T01:34:45.819Z,9.23
2017-10-21T01:37:13.291Z,9.87
2017-10-21T01:39:40.779Z,10.80
2017-10-21T01:42:08.278Z,9.27
2017-10-21T01:44:35.736Z,9.97
2017-10-21T01:47:03.231Z,9.57
2017-10-21T01:49:31.463Z,9.30
2017-10-21T01:51:58.947Z,9.90
2017-10-21T01:54:26.439Z,10.80
2017-10-21T01:56:54.671Z,10.20
2017-10-21T01:59:22.220Z,9.43
2017-10-21T02:01:49.701Z,9.40
2017-10-21T02:04:17.171Z,9.77
2017-10-21T02:06:44.674Z,8.53
2017-10-21T02:09:12.139Z,10.00
2017-10-21T02:11:39.678Z,8.37
2017-10-21T02:14:07.135Z,10.23
2017-10-21T02:16:34.642Z,10.10
2017-10-21T02:19:02.111Z,9.63
2017-10-21T02:21:29.624Z,9.47
2017-10-21T02:23:57.110Z,8.73
2017-10-21T02:26:24.592Z,9.63
2017-10-21T02:28:52.090Z,9.33
2017-10-21T02:31:19.567Z,10.90
2017-10-21T02:33:47.059Z,10.17
2017-10-21T02:36:14.531Z,11.50
2017-10-21T02:38:43.563Z,10.40
2017-10-21T02:41:11.056Z,10.00
2017-10-21T02:43:38.527Z,8.40
2017-10-21T02:46:06.021Z,9.30
2017-10-21T02:48:34.263Z,8.97
2017-10-21T02:51:01.822Z,9.87
2017-10-21T02:53:29.304Z,9.70
2017-10-21T02:55:57.568Z,9.27
2017-10-21T02:58:25.048Z,9.33
2017-10-21T03:00:53.321Z,9.43
2017-10-21T03:03:21.587Z,9.07
2017-10-21T03:05:49.103Z,10.40
2017-10-21T03:08:16.590Z,10.30
2017-10-21T03:10:44.071Z,9.80
2017-10-21T03:13:12.346Z,10.07
2017-10-21T03:15:40.619Z,9.70
2017-10-21T03:18:08.145Z,11.57
2017-10-21T03:20:35.623Z,9.07
2017-10-21T03:23:03.107Z,9.90
2017-10-21T03:25:31.381Z,9.87
2017-10-21T03:27:58.862Z,10.53
2017-10-21T03:30:26.333Z,9.27
2017-10-21T03:32:53.814Z,9.57
2017-10-21T03:35:21.316Z,9.97
2017-10-21T03:37:49.555Z,10.70
2017-10-21T03:40:17.059Z,10.33
2017-10-21T03:42:45.303Z,10.40
2017-10-21T03:45:12.811Z,10.80
2017-10-21T03:47:40.299Z,10.73
2017-10-21T03:50:07.770Z,10.73
2017-10-21T03:52:35.251Z,9.80
2017-10-21T03:55:03.508Z,10.37
2017-10-21T03:57:31.007Z,9.70
2017-10-21T03:59:59.230Z,8.63
2017-10-21T04:02:26.748Z,10.57
2017-10-21T04:04:54.983Z,10.17
2017-10-21T04:07:22.460Z,8.70
2017-10-21T04:09:49.963Z,9.83
2017-10-21T04:12:17.440Z,9.50
2017-10-21T04:14:44.931Z,9.23
2017-10-21T04:17:12.412Z,9.53
2017-10-21T04:19:40.705Z,8.70
2017-10-21T04:22:08.183Z,9.37
2017-10-21T04:24:35.668Z,9.00
2017-10-21T04:27:03.172Z,9.30
2017-10-21T04:29:30.663Z,9.30
2017-10-21T04:31:58.170Z,8.90
2017-10-21T04:34:26.439Z,8.77
2017-10-21T04:36:54.692Z,9.50
2017-10-21T04:39:22.184Z,9.30
2017-10-21T04:41:50.408Z,8.17
2017-10-21T04:44:17.911Z,8.57
2017-10-21T04:46:46.148Z,8.43
2017-10-21T04:49:13.631Z,8.60
2017-10-21T04:51:41.871Z,10.20
2017-10-21T04:54:09.380Z,11.80
2017-10-21T04:56:37.631Z,11.00
2017-10-21T04:59:05.528Z,10.33
2017-10-21T05:01:33.764Z,8.80
2017-10-21T05:04:01.246Z,9.80
2017-10-21T05:06:28.761Z,10.40
2017-10-21T05:08:56.235Z,10.70
2017-10-21T05:11:23.732Z,10.37
2017-10-21T05:13:51.241Z,10.73
2017-10-21T05:16:18.707Z,10.63
2017-10-21T05:18:46.243Z,9.57
2017-10-21T05:21:13.732Z,10.67
2017-10-21T05:23:41.207Z,10.60
2017-10-21T05:26:08.707Z,10.93
2017-10-21T05:28:36.968Z,11.13
2017-10-21T05:31:05.227Z,9.20
2017-10-21T05:33:32.718Z,9.43
2017-10-21T05:36:00.980Z,10.17
2017-10-21T05:38:29.225Z,9.70
2017-10-21T05:40:56.770Z,11.23
2017-10-21T05:43:24.234Z,9.87
2017-10-21T05:45:51.699Z,15.87
2017-10-21T05:48:19.215Z,10.70
2017-10-21T05:50:46.732Z,10.43
2017-10-21T05:53:14.260Z,10.93
2017-10-21T05:55:41.759Z,11.13
2017-10-21T05:58:09.251Z,12.30
2017-10-21T06:00:36.716Z,12.40
2017-10-21T06:03:04.219Z,13.80
2017-10-21T06:05:31.694Z,12.47
2017-10-21T06:07:59.201Z,12.40
2017-10-21T06:10:26.708Z,11.90
2017-10-21T06:12:54.184Z,11.00
2017-10-21T06:15:22.455Z,9.93
2017-10-21T06:17:50.715Z,11.30
2017-10-21T06:20:19.010Z,11.00
2017-10-21T06:22:46.538Z,10.37
2017-10-21T06:25:14.056Z,11.50
2017-10-21T06:27:41.578Z,11.30
2017-10-21T06:30:09.099Z,11.17
2017-10-21T06:32:36.575Z,11.10
2017-10-21T06:35:04.060Z,11.50
2017-10-21T06:37:31.579Z,10.67
2017-10-21T06:39:59.102Z,11.20
2017-10-21T06:42:27.371Z,10.10
2017-10-21T06:44:55.603Z,11.40
2017-10-21T06:47:23.130Z,12.03
2017-10-21T06:49:50.613Z,10.30
2017-10-21T06:52:18.079Z,9.70
2017-10-21T06:54:45.594Z,9.80
2017-10-21T06:57:13.825Z,10.40
2017-10-21T06:59:41.337Z,10.17
2017-10-21T07:02:08.841Z,9.53
2017-10-21T07:04:36.366Z,9.17
2017-10-21T07:07:03.927Z,9.30
2017-10-21T07:09:31.428Z,9.60
2017-10-21T07:11:58.948Z,10.97
2017-10-21T07:14:26.443Z,10.13
2017-10-21T07:16:53.959Z,9.47
2017-10-21T07:19:21.433Z,10.63
2017-10-21T07:21:48.909Z,9.40
2017-10-21T07:24:16.402Z,10.57
2017-10-21T07:26:44.652Z,10.80
2017-10-21T07:29:12.162Z,10.63
2017-10-21T07:31:39.644Z,10.83
2017-10-21T07:34:07.135Z,12.10
2017-10-21T07:36:34.609Z,11.93
2017-10-21T07:39:02.916Z,11.60
2017-10-21T07:41:30.421Z,11.10
2017-10-21T07:43:57.904Z,12.10
2017-10-21T07:46:26.169Z,11.30
2017-10-21T07:48:53.680Z,12.43
2017-10-21T07:51:21.180Z,12.60
2017-10-21T07:53:48.635Z,13.73
2017-10-21T07:56:16.491Z,14.10
2017-10-21T07:58:43.967Z,13.20
2017-10-21T08:01:11.450Z,14.13
2017-10-21T08:03:39.715Z,14.87
2017-10-21T08:06:07.957Z,15.00
2017-10-21T08:08:35.488Z,15.50
2017-10-21T08:11:02.974Z,15.57
2017-10-21T08:13:30.490Z,14.90
2017-10-21T08:19:22.387Z,14.63
2017-10-21T08:24:43.743Z,17.43
2017-10-21T08:27:19.765Z,18.07
2017-10-21T08:29:49.372Z,19.90
2017-10-21T08:35:14.575Z,20.50
2017-10-21T08:37:43.169Z,20.73
2017-10-21T08:40:12.476Z,20.60
2017-10-21T08:42:42.691Z,22.77
2017-10-21T08:45:14.410Z,23.60
2017-10-21T08:47:55.640Z,21.80
2017-10-21T08:50:31.411Z,23.10
2017-10-21T08:55:42.669Z,24.17
2017-10-21T08:58:18.557Z,21.73
2017-10-21T09:01:00.197Z,22.53
2017-10-21T09:03:35.188Z,21.30
2017-10-21T09:06:32.279Z,21.60
2017-10-21T09:09:02.780Z,19.97
2017-10-21T09:11:32.666Z,19.27
2017-10-21T09:17:26.860Z,17.63
2017-10-21T09:22:33.131Z,16.33
2017-10-21T09:25:10.310Z,15.33
2017-10-21T09:27:59.458Z,16.40
2017-10-21T09:30:32.363Z,14.07
2017-10-21T09:33:09.747Z,12.47
2017-10-21T09:35:41.446Z,9.47
2017-10-21T09:38:16.476Z,9.00
2017-10-21T09:40:46.193Z,9.60
2017-10-21T09:43:17.030Z,8.27
2017-10-21T09:45:49.523Z,6.80
2017-10-21T09:48:21.512Z,8.00
2017-10-21T09:50:57.751Z,7.70
2017-10-21T09:53:47.574Z,7.70
2017-10-21T09:56:19.046Z,7.30
2017-10-21T09:58:47.266Z,7.10
2017-10-21T10:01:14.741Z,8.33
2017-10-21T10:03:42.260Z,8.50
2017-10-21T10:06:09.767Z,7.90
2017-10-21T10:08:37.227Z,8.00
2017-10-21T10:11:04.711Z,8.00
2017-10-21T10:13:33.090Z,8.00
2017-10-21T10:16:01.419Z,8.40
2017-10-21T10:18:28.900Z,9.00
2017-10-21T10:20:57.900Z,8.50
2017-10-21T10:23:25.376Z,8.70
2017-10-21T10:25:53.649Z,8.57
2017-10-21T10:28:22.250Z,9.67
2017-10-21T10:30:50.512Z,9.93
2017-10-21T10:33:18.751Z,9.10
2017-10-21T10:35:46.232Z,10.30
2017-10-21T10:38:14.508Z,10.70
2017-10-21T10:40:42.802Z,10.80
2017-10-21T10:43:11.052Z,12.00
2017-10-21T10:45:38.514Z,9.80
2017-10-21T10:48:06.027Z,9.60
2017-10-21T10:50:33.482Z,9.90
2017-10-21T10:53:00.963Z,9.40
2017-10-21T10:55:28.457Z,10.20
2017-10-21T10:57:55.974Z,8.47
2017-10-21T11:00:23.438Z,9.43
2017-10-21T11:02:50.956Z,8.93
2017-10-21T11:05:19.223Z,9.37
2017-10-21T11:07:47.478Z,8.10
2017-10-21T11:10:14.982Z,8.00
2017-10-21T11:12:42.476Z,6.43
2017-10-21T11:15:09.939Z,6.50
2017-10-21T11:17:38.191Z,7.03
2017-10-21T11:20:05.692Z,6.30
2017-10-21T11:22:33.964Z,8.47
2017-10-21T11:25:01.428Z,6.50
2017-10-21T11:27:28.899Z,5.80
2017-10-21T11:29:57.156Z,6.13
2017-10-21T11:32:25.391Z,6.87
2017-10-21T11:34:52.911Z,5.60
2017-10-21T11:37:21.128Z,4.60
2017-10-21T11:39:48.603Z,3.97
2017-10-21T11:42:16.070Z,3.27
2017-10-21T11:44:44.323Z,3.17
2017-10-21T11:47:11.820Z,3.43
2017-10-21T11:49:39.281Z,2.90
2017-10-21T11:52:06.804Z,3.30
2017-10-21T11:54:34.277Z,3.00
2017-10-21T11:57:01.780Z,3.30
2017-10-21T11:59:30.030Z,3.80
2017-10-21T12:01:57.499Z,3.10
2017-10-21T12:04:25.786Z,3.30
2017-10-21T12:06:54.138Z,3.60
2017-10-21T12:09:21.661Z,4.07
2017-10-21T12:11:54.774Z,2.93
2017-10-21T12:14:33.252Z,3.43
2017-10-21T12:17:03.223Z,3.13
2017-10-21T12:19:43.859Z,3.23
2017-10-21T12:22:23.494Z,3.93
2017-10-21T12:25:00.242Z,3.50
2017-10-21T12:27:33.391Z,3.17
2017-10-21T12:32:42.118Z,2.70
2017-10-21T12:35:14.220Z,2.93
2017-10-21T12:37:44.638Z,3.13
2017-10-21T12:40:16.298Z,3.07
2017-10-21T12:42:45.767Z,3.23
2017-10-21T12:45:19.312Z,3.30
2017-10-21T12:47:57.869Z,2.90
2017-10-21T12:53:08.040Z,3.00
2017-10-21T12:55:35.865Z,2.60
2017-10-21T12:58:03.998Z,3.00
2017-10-21T13:00:35.855Z,2.70
2017-10-21T13:03:08.307Z,3.17
2017-10-21T13:05:38.172Z,2.93
2017-10-21T13:08:06.771Z,2.37
2017-10-21T13:10:39.084Z,2.40
2017-10-21T13:13:16.784Z,3.07
2017-10-21T13:21:32.092Z,3.50
2017-10-21T13:23:59.592Z,2.50
2017-10-21T13:26:29.630Z,2.43
2017-10-21T13:28:57.163Z,2.70
2017-10-21T13:31:24.670Z,3.07
2017-10-21T13:33:52.912Z,2.77
2017-10-21T13:36:20.381Z,2.43
2017-10-21T13:38:49.086Z,2.80
2017-10-21T13:41:16.635Z,2.90
2017-10-21T13:43:44.899Z,3.20
2017-10-21T13:46:12.406Z,3.47
2017-10-21T13:48:39.910Z,3.43
2017-10-21T13:51:07.411Z,3.50
2017-10-21T13:53:34.929Z,2.67
2017-10-21T13:56:02.418Z,2.63
2017-10-21T13:58:30.737Z,2.83
2017-10-21T14:00:58.210Z,3.00
2017-10-21T14:03:25.732Z,3.17
2017-10-21T14:05:54.051Z,2.80
2017-10-21T14:08:21.573Z,3.00
2017-10-21T14:10:49.033Z,3.00
2017-10-21T14:13:16.561Z,3.50
2017-10-21T14:15:44.038Z,3.57
2017-10-21T14:18:12.310Z,3.13
2017-10-21T14:20:40.524Z,3.40
2017-10-21T14:23:08.037Z,3.57
2017-10-21T14:25:36.296Z,3.20
2017-10-21T14:28:03.783Z,3.70
2017-10-21T14:30:31.314Z,3.33
2017-10-21T14:32:58.795Z,3.33
2017-10-21T14:35:27.056Z,3.50
2017-10-21T14:37:55.303Z,3.60
2017-10-21T14:40:22.824Z,3.87
2017-10-21T14:42:50.320Z,3.67
2017-10-21T14:45:17.793Z,3.57
2017-10-21T14:47:45.283Z,3.93
2017-10-21T14:50:13.566Z,4.33
2017-10-21T14:52:41.828Z,4.23
2017-10-21T14:55:10.084Z,3.77
2017-10-21T14:57:37.579Z,3.40
2017-10-21T15:00:05.074Z,4.77
2017-10-21T15:02:32.578Z,4.00
2017-10-21T15:05:01.017Z,4.03
2017-10-21T15:07:28.515Z,3.63
2017-10-21T15:09:56.024Z,4.03
2017-10-21T15:12:32.492Z,3.80
2017-10-21T15:15:00.906Z,4.70
2017-10-21T15:17:29.191Z,18.93
2017-10-21T15:19:56.679Z,15.50
2017-10-21T15:22:25.868Z,16.27
2017-10-21T15:24:54.137Z,16.23
2017-10-21T15:27:22.388Z,13.17
2017-10-21T15:29:49.891Z,12.10
2017-10-21T15:32:18.138Z,13.50
2017-10-21T15:34:45.672Z,13.63
2017-10-21T15:37:23.870Z,10.80
2017-10-21T15:40:12.069Z,12.87
2017-10-21T15:43:03.791Z,9.67
2017-10-21T15:48:16.792Z,9.53
2017-10-21T15:50:44.282Z,9.60
2017-10-21T15:53:11.748Z,9.70
2017-10-21T15:55:40.041Z,44.07
2017-10-21T15:58:08.279Z,25.90
2017-10-21T16:00:35.737Z,11.40
2017-10-21T16:03:03.251Z,11.27
2017-10-21T16:05:30.742Z,10.63
2017-10-21T16:07:58.220Z,10.80
2017-10-21T16:10:25.696Z,12.10
2017-10-21T16:12:53.987Z,10.70
2017-10-21T16:15:21.455Z,11.30
2017-10-21T16:17:48.957Z,11.50
2017-10-21T16:20:16.432Z,12.20
2017-10-21T16:22:43.937Z,11.20
2017-10-21T16:25:11.399Z,11.60
2017-10-21T16:27:38.876Z,11.63
2017-10-21T16:30:06.380Z,11.87
2017-10-21T16:32:34.611Z,12.90
2017-10-21T16:35:02.131Z,12.00
2017-10-21T16:37:30.427Z,11.37
2017-10-21T16:39:57.911Z,11.80
2017-10-21T16:42:25.383Z,12.80
2017-10-21T16:44:54.414Z,13.00
2017-10-21T16:47:22.655Z,13.30
2017-10-21T16:49:50.910Z,12.90
2017-10-21T16:52:18.403Z,12.10
2017-10-21T16:54:45.886Z,12.27
2017-10-21T16:57:14.858Z,14.00
2017-10-21T16:59:42.346Z,12.00
2017-10-21T17:02:10.626Z,13.53
2017-10-21T17:04:38.856Z,15.27
2017-10-21T17:07:07.096Z,10.70
2017-10-21T17:09:34.608Z,11.07
2017-10-21T17:12:02.109Z,11.17
2017-10-21T17:14:29.592Z,10.00
2017-10-21T17:16:57.080Z,8.43
2017-10-21T17:19:25.359Z,8.90
2017-10-21T17:21:52.843Z,7.20
2017-10-21T17:24:21.101Z,8.77
2017-10-21T17:26:48.586Z,8.77
2017-10-21T17:29:16.103Z,11.43
2017-10-21T17:31:43.567Z,9.37
2017-10-21T17:34:11.047Z,11.80
2017-10-21T17:36:39.313Z,12.57
2017-10-21T17:39:07.555Z,10.50
2017-10-21T17:41:35.068Z,9.87
2017-10-21T17:44:02.549Z,10.23
2017-10-21T17:46:30.061Z,10.00
2017-10-21T17:48:58.335Z,12.30
2017-10-21T17:51:25.798Z,19.00
2017-10-21T17:53:53.320Z,13.27
2017-10-21T17:56:20.833Z,11.53
2017-10-21T17:58:49.064Z,12.80
2017-10-21T18:01:16.559Z,12.47
2017-10-21T18:03:44.799Z,11.03
2017-10-21T18:06:12.260Z,12.10
2017-10-21T18:08:39.852Z,10.10
2017-10-21T18:11:08.076Z,9.50
2017-10-21T18:13:35.590Z,6.70
2017-10-21T18:16:03.823Z,5.70
2017-10-21T18:18:31.275Z,4.27
2017-10-21T18:20:58.778Z,3.80
2017-10-21T18:23:27.016Z,3.30
2017-10-21T18:25:54.503Z,1.93
2017-10-21T18:28:21.976Z,1.90
2017-10-21T18:30:50.246Z,2.07
2017-10-21T18:33:17.737Z,2.47
2017-10-21T18:35:45.250Z,2.33
2017-10-21T18:38:13.500Z,2.60
2017-10-21T18:40:40.995Z,2.47
2017-10-21T18:43:08.480Z,2.67
2017-10-21T18:45:35.979Z,2.50
2017-10-21T18:48:03.458Z,1.90
2017-10-21T18:50:31.731Z,2.60
2017-10-21T18:52:59.238Z,2.20
2017-10-21T18:55:26.760Z,2.37
2017-10-21T18:57:54.236Z,1.97
2017-10-21T19:00:22.480Z,1.70
2017-10-21T19:02:50.001Z,1.83
2017-10-21T19:05:17.467Z,1.87
2017-10-21T19:07:44.983Z,1.90
2017-10-21T19:10:13.220Z,2.00
2017-10-21T19:12:40.741Z,1.57
2017-10-21T19:15:08.256Z,1.63
2017-10-21T19:17:35.712Z,2.10
2017-10-21T19:20:03.212Z,1.50
2017-10-21T19:22:31.481Z,1.73
2017-10-21T19:24:59.755Z,1.60
2017-10-21T19:27:28.024Z,1.80
2017-10-21T19:29:56.267Z,1.70
2017-10-21T19:32:23.751Z,1.30
2017-10-21T19:34:51.262Z,1.90
2017-10-21T19:37:18.744Z,1.60
2017-10-21T19:39:46.263Z,1.30
2017-10-21T19:42:13.753Z,1.63
2017-10-21T19:44:41.247Z,1.57
2017-10-21T19:47:08.785Z,2.30
2017-10-21T19:49:36.264Z,1.53
2017-10-21T19:52:04.549Z,1.80
2017-10-21T19:54:32.822Z,2.47
2017-10-21T19:57:00.332Z,1.43
2017-10-21T19:59:27.795Z,1.73
2017-10-21T20:01:55.280Z,1.75
2017-10-21T20:04:22.781Z,1.90
2017-10-21T20:06:50.271Z,2.05
2017-10-21T20:09:17.764Z,2.33
2017-10-21T20:11:46.009Z,1.83
2017-10-21T20:14:13.531Z,1.65
2017-10-21T20:16:41.007Z,2.10
2017-10-21T20:19:08.507Z,2.20
2017-10-21T20:21:36.006Z,2.10
2017-10-21T20:24:03.507Z,2.25
2017-10-21T20:26:31.031Z,2.33
2017-10-21T20:28:58.503Z,1.80
2017-10-21T20:31:26.011Z,2.42
2017-10-21T20:33:54.300Z,1.50
2017-10-21T20:36:22.558Z,2.42
2017-10-21T20:38:50.052Z,1.63
2017-10-21T20:41:17.524Z,1.80
2017-10-21T20:43:45.084Z,2.85
2017-10-21T20:46:12.587Z,1.40
2017-10-21T20:48:40.096Z,2.05
2017-10-21T20:51:07.607Z,2.00
2017-10-21T20:53:35.071Z,2.08
2017-10-21T20:56:02.584Z,1.90
2017-10-21T20:58:30.075Z,2.20
2017-10-21T21:00:57.609Z,3.53
2017-10-21T21:03:25.078Z,1.33
2017-10-21T21:05:52.550Z,1.80
2017-10-21T21:08:20.041Z,2.00
2017-10-21T21:10:48.292Z,1.80
2017-10-21T21:13:15.791Z,1.98
2017-10-21T21:15:43.300Z,2.20
2017-10-21T21:18:11.771Z,1.67
2017-10-21T21:20:39.240Z,1.60
2017-10-21T21:23:06.708Z,2.12
2017-10-21T21:25:34.243Z,2.20
2017-10-21T21:28:01.735Z,1.77
2017-10-21T21:30:29.257Z,1.80
2017-10-21T21:32:56.729Z,1.90
2017-10-21T21:35:24.241Z,2.12
2017-10-21T21:37:51.735Z,2.05
2017-10-21T21:40:19.230Z,1.75
2017-10-21T21:42:46.718Z,1.80
2017-10-21T21:45:14.201Z,2.03
2017-10-21T21:47:41.703Z,1.70
2017-10-21T21:50:09.191Z,1.65
2017-10-21T21:52:37.504Z,1.98
2017-10-21T21:55:04.963Z,2.37
2017-10-21T21:57:32.440Z,1.52
2017-10-21T21:59:59.939Z,1.67
2017-10-21T22:02:28.163Z,1.75
2017-10-21T22:04:55.667Z,2.03
2017-10-21T22:07:23.928Z,2.58
2017-10-21T22:09:51.439Z,1.85
2017-10-21T22:12:18.915Z,1.80
2017-10-21T22:14:46.388Z,1.52
2017-10-21T22:17:13.891Z,1.60
2017-10-21T22:19:41.389Z,1.73
2017-10-21T22:22:08.858Z,1.98
2017-10-21T22:24:36.347Z,1.62
2017-10-21T22:27:03.839Z,1.98
2017-10-21T22:29:31.337Z,2.35
2017-10-21T22:31:58.830Z,1.60
2017-10-21T22:34:27.060Z,1.87
2017-10-21T22:36:54.570Z,1.55
2017-10-21T22:39:22.807Z,2.08
2017-10-21T22:41:50.320Z,2.05
2017-10-21T22:44:17.827Z,2.10
2017-10-21T22:46:45.348Z,2.00
2017-10-21T22:49:12.878Z,2.10
2017-10-21T22:51:40.352Z,2.20
2017-10-21T22:54:08.603Z,1.40
2017-10-21T22:56:36.124Z,2.07
2017-10-21T22:59:03.600Z,1.90
2017-10-21T23:01:31.076Z,2.45
2017-10-21T23:03:58.560Z,2.13
2017-10-21T23:06:26.806Z,2.17
2017-10-21T23:08:54.308Z,1.90
2017-10-21T23:11:21.776Z,2.00
2017-10-21T23:13:49.266Z,2.20
2017-10-21T23:16:16.713Z,2.30
2017-10-21T23:18:44.208Z,2.30
2017-10-21T23:21:11.684Z,1.97
2017-10-21T23:23:39.144Z,1.63
2017-10-21T23:26:07.445Z,2.70
2017-10-21T23:28:34.916Z,2.47
2017-10-21T23:31:02.391Z,1.70
2017-10-21T23:33:29.902Z,2.43
2017-10-21T23:35:58.136Z,1.90
2017-10-21T23:38:25.615Z,2.10
2017-10-21T23:40:53.856Z,1.73
2017-10-21T23:43:21.355Z,2.57
2017-10-21T23:45:48.851Z,2.07
2017-10-21T23:48:16.309Z,2.00
2017-10-21T23:50:43.814Z,1.73
2017-10-21T23:53:11.287Z,2.13
2017-10-21T23:55:39.569Z,1.70
2017-10-21T23:58:07.796Z,1.63
